Thunder radar more information blitzortung!


Radar de pluja more information rain snow radar


Visita la nostra xarxa de llocs de meteo:

Template documentation
and downloads

And another site



No particular awareness of the weather is required.    There are no Weather-warnings

Pagina Historial Weather Underground text

Diari Resum Desembre 1, 2017 Unitats:  Imperial    Mètric   Tant
« Previous Dia
SegĂźent Dia »
Diari Setmana Mensual Anual Personalitzada
  Maxima: Minima: Media:
Temperatura: 45.9 °F 33.8 °F 39.2 °F
Punt de rosada: 28.8 °F 16.3 °F 24.8 °F
Humitat: 63 % 44 % 56 %
Wind Speed: 8.1 mph 0 mph 2.4 mph
RĂ fegues de vent: 8.1 mph - -
Vent:- - SSE
Pression baro: 29.9 in 29.8 in -
Precipitacions: 0 in    
Historical Graphs
 
 
Dades de taula per Desembre 1, 2017
Temps Temperatura Punt de rosada Pression baro Vent Wind Speed RĂ fegues de vent Humitat Rainfall Rate (Hourly)
01:00 38.1 °F 20.1 °F 29.9 in Calm     48 % 0 in
01:05 37.9 °F 19.9 °F 29.9 in Calm     48 % 0 in
01:10 37.9 °F 20.5 °F 29.9 in Calm     49 % 0 in
01:15 37.9 °F 20.5 °F 29.9 in Calm     49 % 0 in
01:20 37.9 °F 20.5 °F 29.9 in Calm     49 % 0 in
01:25 37.9 °F 20.5 °F 29.9 in Calm     49 % 0 in
01:30 38.1 °F 21 °F 29.9 in Calm   1 mph 50 % 0 in
01:40 38.1 °F 21 °F 29.9 in North 1 mph   50 % 0 in
01:45 38.3 °F 21.7 °F 29.9 in NW 1 mph 2 mph 51 % 0 in
01:50 38.7 °F 22.1 °F 29.9 in WNW 1 mph 1 mph 51 % 0 in
01:55 38.8 °F 22.3 °F 29.9 in WSW 2 mph 2 mph 51 % 0 in
02:00 39.4 °F 23.2 °F 29.9 in West 2 mph 3 mph 52 % 0 in
02:05 39.4 °F 23.2 °F 29.9 in WNW 2 mph 3 mph 52 % 0 in
02:10 39.7 °F 23.5 °F 29.9 in WNW 3 mph 3 mph 52 % 0 in
02:15 39.9 °F 24.3 °F 29.9 in West 2 mph 3 mph 53 % 0 in
02:20 39.7 °F 24.1 °F 29.9 in West 2 mph 4 mph 53 % 0 in
02:25 39.9 °F 24.3 °F 29.9 in NW 1 mph 2 mph 53 % 0 in
02:35 39.7 °F 24.4 °F 29.9 in Calm   1 mph 54 % 0 in
02:40 39.6 °F 24.3 °F 29.9 in ENE 2 mph 2 mph 54 % 0 in
02:45 39.4 °F 24.1 °F 29.9 in Calm   2 mph 54 % 0 in
02:50 39.4 °F 24.1 °F 29.9 in WNW 2 mph 2 mph 54 % 0 in
02:55 39.6 °F 24.3 °F 29.9 in WNW 1 mph 1 mph 54 % 0 in
03:00 39.6 °F 24.3 °F 29.9 in WNW 2 mph 2 mph 54 % 0 in
03:05 39.6 °F 24.3 °F 29.9 in West 2 mph 2 mph 54 % 0 in
03:10 39.7 °F 24.4 °F 29.9 in West 2 mph 2 mph 54 % 0 in
03:15 39.9 °F 25 °F 29.9 in West 1 mph 3 mph 55 % 0 in
03:20 40.1 °F 25.2 °F 29.9 in West 1 mph 3 mph 55 % 0 in
03:30 39.9 °F 25 °F 29.8 in Calm   2 mph 55 % 0 in
03:35 39.9 °F 25 °F 29.8 in WNW 2 mph 2 mph 55 % 0 in
03:40 39.9 °F 25 °F 29.8 in WNW 2 mph 2 mph 55 % 0 in
03:45 39.9 °F 25 °F 29.9 in WNW 1 mph 2 mph 55 % 0 in
03:50 39.9 °F 25.5 °F 29.9 in Calm   2 mph 56 % 0 in
03:55 39.9 °F 25.5 °F 29.9 in Calm   1 mph 56 % 0 in
04:00 39.9 °F 25.5 °F 29.9 in Calm   2 mph 56 % 0 in
04:05 39.7 °F 25 °F 29.9 in NW 1 mph 2 mph 55 % 0 in
04:10 39.6 °F 25.2 °F 29.9 in Calm   1 mph 56 % 0 in
04:15 39.7 °F 25.3 °F 29.9 in Calm   1 mph 56 % 0 in
04:20 40.1 °F 25.5 °F 29.9 in Calm   1 mph 56 % 0 in
04:25 40.3 °F 26.2 °F 29.9 in Calm     57 % 0 in
04:30 40.3 °F 26.2 °F 29.8 in SE 1 mph 1 mph 57 % 0 in
04:35 40.1 °F 26.1 °F 29.8 in East 1 mph 1 mph 57 % 0 in
04:40 39.9 °F 25.5 °F 29.8 in NW 3 mph 3 mph 56 % 0 in
04:45 40.1 °F 25.5 °F 29.8 in NW 3 mph 3 mph 56 % 0 in
04:50 40.1 °F 26.1 °F 29.8 in NNW 3 mph 3 mph 57 % 0 in
04:55 39.6 °F 25.5 °F 29.8 in NNW 2 mph 2 mph 57 % 0 in
05:10 39.2 °F 24.8 °F 29.8 in North 1 mph 3 mph 56 % 0 in
05:15 39.4 °F 25.3 °F 29.8 in NNW 3 mph 3 mph 57 % 0 in
05:20 39.4 °F 25.3 °F 29.8 in NNW 1 mph 2 mph 57 % 0 in
05:25 39.6 °F 25.5 °F 29.8 in North 1 mph 2 mph 57 % 0 in
05:30 39.4 °F 25.3 °F 29.8 in NE 1 mph 2 mph 57 % 0 in
05:35 39.2 °F 25.2 °F 29.8 in Calm   2 mph 57 % 0 in
05:40 39.2 °F 25.5 °F 29.8 in ENE 1 mph   58 % 0 in
05:45 38.8 °F 25 °F 29.8 in NE 1 mph 2 mph 57 % 0 in
05:50 38.7 °F 25.2 °F 29.8 in ENE 2 mph 3 mph 58 % 0 in
06:05 37.9 °F 24.4 °F 29.8 in ENE 1 mph 3 mph 58 % 0 in
06:10 37.8 °F 24.3 °F 29.8 in NE 1 mph 3 mph 58 % 0 in
06:15 37.4 °F 23.5 °F 29.8 in North 1 mph 1 mph 57 % 0 in
06:20 37.6 °F 24.1 °F 29.8 in NNE 3 mph 4 mph 58 % 0 in
06:35 37 °F 23.5 °F 29.8 in NNE 3 mph 4 mph 58 % 0 in
06:40 37 °F 23.5 °F 29.8 in NNE 3 mph 6 mph 58 % 0 in
06:45 37 °F 23.5 °F 29.8 in NNE 1 mph 6 mph 58 % 0 in
06:50 36.9 °F 23.4 °F 29.8 in NE 2 mph 3 mph 58 % 0 in
07:00 36.5 °F 23.5 °F 29.8 in NE 2 mph 3 mph 59 % 0 in
07:05 36.3 °F 23.4 °F 29.8 in NE 2 mph 2 mph 59 % 0 in
07:10 36.3 °F 23.4 °F 29.8 in NE 2 mph 3 mph 59 % 0 in
07:15 36.3 °F 23.4 °F 29.8 in East 1 mph 3 mph 59 % 0 in
07:20 36.3 °F 23.4 °F 29.8 in Calm   3 mph 59 % 0 in
07:30 36.7 °F 23.7 °F 29.8 in West 2 mph 4 mph 59 % 0 in
07:35 36.7 °F 23.7 °F 29.8 in West 3 mph 4 mph 59 % 0 in
07:40 37.4 °F 24.8 °F 29.8 in WSW 1 mph 3 mph 60 % 0 in
07:50 39 °F 26.2 °F 29.8 in WNW 1 mph 3 mph 60 % 0 in
07:55 38.7 °F 26.1 °F 29.8 in WSW 2 mph 4 mph 60 % 0 in
08:00 38.5 °F 25.9 °F 29.8 in West 1 mph 4 mph 60 % 0 in
08:05 38.3 °F 25.5 °F 29.8 in WNW 2 mph 2 mph 60 % 0 in
08:10 38.5 °F 25.9 °F 29.8 in WNW 2 mph 4 mph 60 % 0 in
08:15 38.5 °F 25.9 °F 29.8 in West 2 mph 4 mph 60 % 0 in
08:20 38.8 °F 26.1 °F 29.8 in West 1 mph 2 mph 60 % 0 in
08:25 39.2 °F 26.4 °F 29.8 in WNW 2 mph 2 mph 60 % 0 in
08:30 39.6 °F 26.8 °F 29.8 in WNW 1 mph 2 mph 60 % 0 in
08:35 39.7 °F 27 °F 29.8 in NW 2 mph 3 mph 60 % 0 in
08:40 40.6 °F 28.2 °F 29.8 in WNW 1 mph 3 mph 61 % 0 in
08:45 41.2 °F 28.8 °F 29.8 in South 1 mph 2 mph 61 % 0 in
08:50 41.4 °F 28.6 °F 29.8 in NW 3 mph 3 mph 60 % 0 in
08:55 41.2 °F 28.2 °F 29.8 in NNW 2 mph 2 mph 60 % 0 in
09:00 40.5 °F 27.1 °F 29.8 in NNE 3 mph 3 mph 59 % 0 in
09:05 40.1 °F 27 °F 29.8 in NNE 2 mph 3 mph 59 % 0 in
09:10 40.1 °F 27 °F 29.8 in NE 2 mph 2 mph 59 % 0 in
09:20 38.5 °F 19.6 °F 29.9 in East 1 mph 4 mph 46 % 0 in
09:24 39.9 °F 26.8 °F 29.8 in NNW 2.3 mph 2.3 mph 59 % 0 in
09:29 39.9 °F 26.8 °F 29.8 in NNW 2.3 mph 2.3 mph 59 % 0 in
09:34 39.9 °F 26.2 °F 29.8 in ENE 4.7 mph 4.7 mph 58 % 0 in
09:39 39.7 °F 26.2 °F 29.8 in ENE 3.1 mph 3.1 mph 58 % 0 in
09:44 39.7 °F 26.2 °F 29.8 in NNW 2.3 mph 2.3 mph 58 % 0 in
09:49 39.9 °F 26.8 °F 29.8 in NNE 2.4 mph 2.4 mph 59 % 0 in
09:50 39.9 °F 26.8 °F 29.8 in ENE 4.9 mph 4.9 mph 59 % 0 in
09:55 39.9 °F 26.8 °F 29.8 in East 3.5 mph 3.5 mph 59 % 0 in
10:00 39.9 °F 26.2 °F 29.8 in North 3.5 mph 3.5 mph 58 % 0 in
10:05 39.9 °F 26.2 °F 29.8 in East 2.3 mph 2.3 mph 58 % 0 in
10:10 39.9 °F 26.8 °F 29.8 in South 1.4 mph 1.4 mph 59 % 0 in
10:15 39.7 °F 26.2 °F 29.8 in NNE 4.6 mph 4.6 mph 58 % 0 in
10:20 39.2 °F 25.5 °F 29.8 in NNE 5.9 mph 5.9 mph 58 % 0 in
10:30 39.2 °F 25.5 °F 29.8 in NE 6.4 mph 6.4 mph 58 % 0 in
10:35 39 °F 25.5 °F 29.8 in NNE 5.8 mph 5.8 mph 58 % 0 in
10:40 39.4 °F 26.2 °F 29.8 in NNE 5.8 mph 5.8 mph 59 % 0 in
10:45 39.7 °F 26.6 °F 29.8 in NE 5.8 mph 5.8 mph 59 % 0 in
10:50 40.1 °F 27 °F 29.8 in NE 4.6 mph 4.6 mph 59 % 0 in
10:55 40.3 °F 27.1 °F 29.8 in WNW 4.6 mph 4.6 mph 59 % 0 in
11:00 40.5 °F 27.1 °F 29.8 in NE 3.5 mph 3.5 mph 59 % 0 in
11:05 40.3 °F 27.1 °F 29.8 in NNE 8.1 mph 8.1 mph 59 % 0 in
11:10 40.3 °F 27.1 °F 29.8 in NNW 2.3 mph 2.3 mph 59 % 0 in
11:15 40.5 °F 27.1 °F 29.8 in ENE 4 mph 4 mph 59 % 0 in
11:20 40.5 °F 26.8 °F 29.8 in NNE 4.6 mph 4.6 mph 58 % 0 in
11:25 40.3 °F 26.8 °F 29.8 in ENE 5.8 mph 5.8 mph 58 % 0 in
11:30 40.3 °F 26.8 °F 29.8 in ENE 4.9 mph 4.9 mph 58 % 0 in
11:35 40.1 °F 26.4 °F 29.8 in ENE 5.6 mph 5.6 mph 58 % 0 in
11:40 40.1 °F 26.4 °F 29.8 in NNE 4.6 mph 4.6 mph 58 % 0 in
11:45 40.1 °F 27 °F 29.8 in East 2.6 mph 2.6 mph 59 % 0 in
11:50 39.9 °F 26.8 °F 29.8 in NNE 2.3 mph 2.4 mph 59 % 0 in
11:55 40.1 °F 27 °F 29.8 in NNE 2.3 mph 2.3 mph 59 % 0 in
12:00 40.3 °F 27.1 °F 29.8 in NNW 4.3 mph 4.3 mph 59 % 0 in
12:05 40.5 °F 27.1 °F 29.8 in NNE 4.6 mph 4.6 mph 59 % 0 in
12:10 40.8 °F 27.7 °F 29.8 in ENE 2.4 mph 2.4 mph 59 % 0 in
12:15 41 °F 27.9 °F 29.8 in NNE 4.6 mph 4.6 mph 59 % 0 in
12:25 41.2 °F 27.9 °F 29.8 in NNE 3.3 mph 3.3 mph 59 % 0 in
12:30 41.5 °F 28.2 °F 29.8 in NNE 3.3 mph 3.3 mph 59 % 0 in
12:35 41.4 °F 27.7 °F 29.8 in NE 2.3 mph 2.4 mph 58 % 0 in
12:40 41.5 °F 28.2 °F 29.8 in ENE 2.3 mph 2.3 mph 59 % 0 in
12:45 41.5 °F 27.9 °F 29.8 in ENE 2.9 mph 2.9 mph 58 % 0 in
12:50 41.7 °F 28.4 °F 29.8 in ENE 2.2 mph 2.2 mph 59 % 0 in
12:55 41.7 °F 28 °F 29.8 in NE 4.6 mph 4.6 mph 58 % 0 in
13:00 41.5 °F 27.9 °F 29.8 in NNE 4.6 mph 4.6 mph 58 % 0 in
13:05 41.4 °F 27.7 °F 29.8 in NNE 4.6 mph 4.6 mph 58 % 0 in
13:11 41.4 °F 27.7 °F 29.8 in ENE 4.6 mph 4.6 mph 58 % 0 in
13:21 41.7 °F 27.7 °F 29.8 in East 2.3 mph 2.3 mph 57 % 0 in
13:26 41.9 °F 27.9 °F 29.8 in NNE 4.6 mph 4.6 mph 57 % 0 in
13:31 41.9 °F 27.9 °F 29.8 in SSW 5.8 mph 5.8 mph 57 % 0 in
13:36 41.9 °F 27.9 °F 29.8 in NNE 5.8 mph 5.8 mph 57 % 0 in
13:41 41.9 °F 27.3 °F 29.8 in NNE 4.6 mph 4.6 mph 56 % 0 in
13:51 41.9 °F 27.3 °F 29.8 in NNW 3.5 mph 3.5 mph 56 % 0 in
14:01 42.3 °F 27.1 °F 29.8 in NNW 3.5 mph 3.5 mph 55 % 0 in
14:06 42.4 °F 27.3 °F 29.8 in NNW 1.2 mph   55 % 0 in
14:11 42.6 °F 27.7 °F 29.8 in West 1.2 mph 1.2 mph 55 % 0 in
14:21 43.2 °F 27.7 °F 29.8 in ENE 4.6 mph 4.6 mph 54 % 0 in
14:26 43.2 °F 27.7 °F 29.8 in NNE 6.9 mph 6.9 mph 54 % 0 in
14:31 43.3 °F 27.9 °F 29.8 in SSE 2.3 mph 2.9 mph 54 % 0 in
14:36 43.5 °F 28 °F 29.8 in SW 4.6 mph 4.6 mph 54 % 0 in
14:41 43.9 °F 28.2 °F 29.8 in NNW 3.5 mph 3.5 mph 54 % 0 in
14:46 43.9 °F 28.2 °F 29.8 in NE 3.5 mph 3.5 mph 54 % 0 in
14:56 44.2 °F 28.2 °F 29.8 in WSW 2.3 mph 2.3 mph 53 % 0 in
15:01 44.6 °F 28.6 °F 29.8 in South 3.5 mph 3.5 mph 53 % 0 in
15:06 44.8 °F 28.2 °F 29.8 in ENE 5.8 mph 5.8 mph 52 % 0 in
15:11 44.6 °F 28 °F 29.8 in NE 5.8 mph 5.8 mph 52 % 0 in
15:16 44.6 °F 28 °F 29.8 in NNW 3.8 mph 3.8 mph 52 % 0 in
15:26 44.6 °F 28 °F 29.8 in NE 5.8 mph 5.8 mph 52 % 0 in
15:31 44.8 °F 28.2 °F 29.8 in NNE 4.5 mph 4.5 mph 52 % 0 in
15:36 45.3 °F 28.2 °F 29.8 in NE 2.3 mph 2.3 mph 51 % 0 in
15:41 45.9 °F 28.8 °F 29.8 in SSW 2.3 mph 2.3 mph 51 % 0 in
15:56 45.5 °F 28.4 °F 29.8 in East 3.5 mph 3.5 mph 51 % 0 in
16:06 44.6 °F 27.1 °F 29.8 in WSW 6.4 mph 6.4 mph 50 % 0 in
16:11 44.4 °F 27 °F 29.8 in WNW 2.3 mph 2.3 mph 50 % 0 in
16:16 44.2 °F 26.8 °F 29.8 in WNW 2.3 mph 2.3 mph 50 % 0 in
16:21 44.1 °F 26.6 °F 29.8 in West 1.2 mph   50 % 0 in
16:26 43.9 °F 26.4 °F 29.8 in WNW 1.2 mph 1.2 mph 50 % 0 in
16:31 43.7 °F 26.2 °F 29.8 in NNE 2.3 mph 2.3 mph 50 % 0 in
16:36 43.5 °F 26.1 °F 29.8 in NNE 2.3 mph 2.3 mph 50 % 0 in
16:41 43.3 °F 25.9 °F 29.8 in WNW 2.3 mph 2.3 mph 50 % 0 in
16:46 43.3 °F 25.9 °F 29.8 in Calm     50 % 0 in
16:51 43.2 °F 25.9 °F 29.8 in East 2.3 mph 2.3 mph 50 % 0 in
17:01 42.6 °F 25.7 °F 29.8 in ESE 4.6 mph 4.6 mph 51 % 0 in
17:11 42.3 °F 25.9 °F 29.8 in ESE 5.8 mph 5.8 mph 52 % 0 in
17:16 41.9 °F 26.1 °F 29.8 in ENE 5.8 mph 5.8 mph 53 % 0 in
17:31 41 °F 26.4 °F 29.8 in East 3.5 mph 3.5 mph 56 % 0 in
17:36 40.6 °F 26.2 °F 29.8 in East 2.3 mph 2.3 mph 56 % 0 in
17:46 40.1 °F 25.5 °F 29.8 in NNE 5.9 mph 5.9 mph 56 % 0 in
17:47 40.1 °F 25.5 °F 29.8 in ENE 5.8 mph 5.8 mph 56 % 0 in
18:02 39.7 °F 25.3 °F 29.8 in ENE 3.5 mph 3.5 mph 56 % 0 in
18:07 39.7 °F 25.7 °F 29.8 in NE 2.3 mph 2.3 mph 57 % 0 in
18:12 39.6 °F 25.5 °F 29.8 in NNE 1.6 mph   57 % 0 in
18:17 39.6 °F 25.5 °F 29.8 in Calm     57 % 0 in
18:22 39.4 °F 25.3 °F 29.8 in Calm     57 % 0 in
18:23 39.4 °F 25.3 °F 29.8 in Calm     57 % 0 in
18:28 39.2 °F 25.2 °F 29.8 in Calm     57 % 0 in
18:33 38.8 °F 25.3 °F 29.8 in NE 1.6 mph 1.6 mph 58 % 0 in
18:38 38.7 °F 25.2 °F 29.8 in Calm     58 % 0 in
18:43 38.5 °F 25 °F 29.8 in SSW 1.2 mph 1.2 mph 58 % 0 in
18:48 38.3 °F 24.8 °F 29.9 in Calm     58 % 0 in
18:58 38.1 °F 25 °F 29.9 in Calm     59 % 0 in
19:03 37.9 °F 25.3 °F 29.9 in Calm     60 % 0 in
19:13 37.2 °F 24.3 °F 29.9 in SW 2.3 mph 2.3 mph 59 % 0 in
19:19 36.7 °F 23.7 °F 29.9 in SW 2.3 mph 2.3 mph 59 % 0 in
19:24 36.7 °F 23.7 °F 29.9 in WSW 2.4 mph 2.4 mph 59 % 0 in
19:29 36.9 °F 24.3 °F 29.9 in West 2.4 mph 2.4 mph 60 % 0 in
19:34 36.9 °F 24.3 °F 29.9 in Calm     60 % 0 in
19:35 36.9 °F 24.6 °F 29.9 in ENE 1.2 mph   61 % 0 in
19:40 36.3 °F 24.1 °F 29.9 in ENE 1.2 mph   61 % 0 in
19:45 36.3 °F 24.4 °F 29.9 in East 2.3 mph 2.3 mph 62 % 0 in
19:50 36.3 °F 24.1 °F 29.9 in WSW 2.3 mph 2.3 mph 61 % 0 in
19:55 36.5 °F 24.6 °F 29.9 in Calm     62 % 0 in
20:00 36.5 °F 24.6 °F 29.9 in Calm     62 % 0 in
20:13 35.6 °F 23.9 °F 29.9 in SW 1.2 mph   62 % 0 in
20:18 36 °F 24.3 °F 29.9 in Calm     62 % 0 in
20:23 35.8 °F 24.1 °F 29.9 in SW 2.3 mph 2.3 mph 62 % 0 in
20:28 35.6 °F 24.3 °F 29.9 in Calm     63 % 0 in
20:33 35.8 °F 24.4 °F 29.9 in Calm     63 % 0 in
20:38 35.8 °F 24.4 °F 29.9 in WSW 1.2 mph 1.2 mph 63 % 0 in
20:43 36.3 °F 24.4 °F 29.9 in WNW 2.3 mph 2.3 mph 62 % 0 in
20:48 36.1 °F 24.6 °F 29.9 in SW 2.3 mph 2.3 mph 63 % 0 in
20:53 35.4 °F 24.1 °F 29.9 in Calm     63 % 0 in
21:03 34.5 °F 22.8 °F 29.9 in WSW 2.3 mph 2.4 mph 62 % 0 in
21:13 33.8 °F 22.1 °F 29.9 in SW 2.3 mph 2.3 mph 62 % 0 in
21:18 33.8 °F 21.7 °F 29.9 in WSW 2.3 mph 2.3 mph 61 % 0 in
21:23 34.2 °F 22.1 °F 29.9 in WSW 2.3 mph 2.3 mph 61 % 0 in
21:28 34.3 °F 22.3 °F 29.9 in WSW 1.2 mph 1.2 mph 61 % 0 in
21:38 33.8 °F 21.7 °F 29.9 in SW 2.3 mph 2.3 mph 61 % 0 in
21:39 33.8 °F 21.7 °F 29.9 in West 2.3 mph 2.3 mph 61 % 0 in
21:44 33.8 °F 21.4 °F 29.9 in West 2.6 mph 2.6 mph 60 % 0 in
21:49 34.7 °F 20.7 °F 29.9 in West 4.3 mph 4.3 mph 56 % 0 in
21:59 35.1 °F 19.6 °F 29.9 in North 1.2 mph 1.2 mph 53 % 0 in
22:04 35.1 °F 19.2 °F 29.9 in ENE 1.2 mph   52 % 0 in
22:09 35.1 °F 19.2 °F 29.9 in ENE 2.3 mph 2.3 mph 52 % 0 in
22:14 34.9 °F 18.7 °F 29.9 in ENE 1.2 mph 1.2 mph 51 % 0 in
22:19 34.7 °F 18.3 °F 29.9 in East 2.3 mph 2.3 mph 51 % 0 in
22:24 34.5 °F 18.1 °F 29.9 in ENE 1.2 mph 1.2 mph 51 % 0 in
22:29 34.3 °F 18.1 °F 29.9 in NNE 3.1 mph 3.1 mph 51 % 0 in
22:34 34.5 °F 17.8 °F 29.9 in North 1.2 mph   50 % 0 in
22:45 35.8 °F 18.9 °F 29.9 in West 3.5 mph 3.5 mph 50 % 0 in
22:50 36.1 °F 18.9 °F 29.9 in SW 3.5 mph 3.5 mph 49 % 0 in
22:59 36.5 °F 19 °F 29.9 in WSW 2.9 mph 2.9 mph 49 % 0 in
23:05 36.5 °F 18.7 °F 29.9 in WSW 4.6 mph 4.6 mph 48 % 0 in
23:10 36.5 °F 18.1 °F 29.9 in West 2.3 mph 2.3 mph 47 % 0 in
23:15 36.5 °F 18.1 °F 29.9 in West 2.3 mph 2.3 mph 47 % 0 in
23:19 36.7 °F 17.8 °F 29.9 in West 2.3 mph 2.3 mph 46 % 0 in
23:25 36.7 °F 17.2 °F 29.9 in Calm     45 % 0 in
23:30 36.5 °F 17.1 °F 29.9 in WSW 1.6 mph 1.6 mph 45 % 0 in
23:35 36.3 °F 17.1 °F 29.9 in West 1.2 mph   45 % 0 in
23:40 36.3 °F 16.5 °F 29.9 in WNW 1.2 mph   44 % 0 in
23:49 36 °F 16.7 °F 29.9 in WSW 4.9 mph 4.9 mph 45 % 0 in
23:54 36.1 °F 16.3 °F 29.9 in WSW 3.5 mph 3.6 mph 44 % 0 in
23:59 36.3 °F 16.5 °F 29.9 in West 4.6 mph 4.6 mph 44 % 0 in
Meteo Sesrovires
Elogis d' Weather Underground - 3.75 mb

Guio original per  Jim McMurry - jmcmurry@mwt.net Adaptat per a la plantilla per  Wim van der Kuil - Leuven-Template.eu

Trobareu la nostra informacio del temps tambe a:

Weather Underground

AWEKAS